Time;durP1;ratioP1;P1;durP2;ratioP2;P2;SDS_P1;SDS_P2;PMS_P1;PMS_P2;Temp;Humidity;BMP_temperature;BMP_pressure;BME280_temperature;BME280_humidity;BME280_pressure;Samples;Min_cycle;Max_cycle;Signal;HPM_P1;HPM_P2
2022/05/24 00:01:58;;;;;;;4.25;2.60;;;22.60;96.70;;;;;;5048238;28;20092;-77
2022/05/24 00:04:28;;;;;;;4.85;3.08;;;22.60;96.70;;;;;;5049849;28;20094;-77
2022/05/24 00:06:57;;;;;;;7.30;3.00;;;22.70;96.70;;;;;;5053750;28;20140;-77
2022/05/24 00:09:25;;;;;;;5.75;3.20;;;22.60;96.70;;;;;;5053988;28;20033;-77
2022/05/24 00:11:53;;;;;;;5.20;3.08;;;22.60;96.70;;;;;;5053325;28;20048;-76
2022/05/24 00:17:08;;;;;;;;;;;22.50;96.70;;;;;;5052208;28;20075;-78
2022/05/24 00:19:38;;;;;;;5.40;3.00;;;22.00;96.70;;;;;;5052759;28;20439;-77
2022/05/24 00:22:06;;;;;;;5.35;3.08;;;21.80;96.70;;;;;;5053626;28;20040;-77
2022/05/24 00:24:34;;;;;;;5.18;2.85;;;22.00;96.70;;;;;;5048566;28;20445;-78
2022/05/24 00:27:03;;;;;;;6.97;3.40;;;22.00;96.70;;;;;;5052870;28;20063;-77
2022/05/24 00:29:32;;;;;;;4.05;2.95;;;22.00;96.70;;;;;;5056681;28;20468;-77
2022/05/24 00:32:01;;;;;;;5.32;3.10;;;21.90;96.70;;;;;;5047233;28;20536;-77
2022/05/24 00:34:29;;;;;;;6.90;3.00;;;22.00;96.70;;;;;;5055726;28;20052;-77
2022/05/24 00:36:59;;;;;;;4.90;3.10;;;22.10;96.70;;;;;;5055786;28;20490;-77
2022/05/24 00:39:27;;;;;;;4.85;2.92;;;22.20;96.70;;;;;;5054102;28;20098;-77
2022/05/24 00:42:08;;;;;;;4.55;3.03;;;22.00;96.70;;;;;;5058435;28;20045;-78
2022/05/24 00:44:40;;;;;;;4.47;2.95;;;22.00;96.70;;;;;;5052700;28;20568;-77
2022/05/24 00:47:13;;;;;;;5.82;3.20;;;22.00;96.70;;;;;;5035757;28;20070;-77
2022/05/24 00:49:45;;;;;;;6.13;3.00;;;21.90;96.70;;;;;;5053490;28;20050;-78
2022/05/24 00:52:20;;;;;;;4.47;3.10;;;21.90;96.70;;;;;;5055885;28;20105;-78
2022/05/24 00:54:51;;;;;;;5.57;3.28;;;21.90;96.70;;;;;;5047399;28;20474;-77
2022/05/24 00:57:27;;;;;;;5.55;2.92;;;21.90;96.70;;;;;;5036038;28;20067;-77
2022/05/24 01:00:03;;;;;;;5.63;3.00;;;21.90;96.70;;;;;;5053006;28;20048;-77
2022/05/24 01:02:32;;;;;;;6.70;3.58;;;21.80;96.70;;;;;;5059404;28;21366;-77
2022/05/24 01:05:00;;;;;;;6.68;3.33;;;21.80;96.70;;;;;;5047250;28;20492;-77
2022/05/24 01:07:30;;;;;;;5.72;3.15;;;21.90;96.70;;;;;;5030601;28;20607;-76
2022/05/24 01:10:02;;;;;;;7.03;3.20;;;21.80;96.70;;;;;;5050243;28;20041;-75
2022/05/24 01:12:34;;;;;;;9.02;2.88;;;21.80;96.70;;;;;;5050482;28;20052;-75
2022/05/24 01:15:05;;;;;;;5.97;3.28;;;21.90;96.70;;;;;;5052567;28;20032;-75
2022/05/24 01:17:34;;;;;;;5.88;3.55;;;21.90;96.70;;;;;;5056146;28;20045;-74
2022/05/24 01:20:04;;;;;;;7.15;3.55;;;21.90;96.70;;;;;;5051595;28;20033;-75
2022/05/24 01:22:55;;;;;;;6.90;3.10;;;21.80;96.70;;;;;;5054674;28;20067;-75
2022/05/24 01:25:28;;;;;;;7.20;3.47;;;21.80;96.70;;;;;;5047199;28;20045;-75
2022/05/24 01:27:59;;;;;;;5.72;2.83;;;21.80;96.70;;;;;;5045929;28;20139;-75
2022/05/24 01:30:27;;;;;;;7.78;3.38;;;21.80;96.70;;;;;;5056427;28;20048;-75
2022/05/24 01:38:29;;;;;;;7.47;3.80;;;21.70;96.70;;;;;;5055746;28;20055;-76
2022/05/24 01:40:57;;;;;;;6.47;3.78;;;21.50;96.70;;;;;;5054455;28;20573;-77
2022/05/24 01:43:28;;;;;;;6.13;3.30;;;21.50;96.70;;;;;;5050479;28;20051;-77
2022/05/24 01:46:00;;;;;;;7.40;3.42;;;21.60;96.70;;;;;;5049115;28;20377;-78
2022/05/24 01:48:33;;;;;;;6.28;3.60;;;21.70;96.70;;;;;;5038508;28;20056;-77
2022/05/24 01:51:03;;;;;;;6.07;3.55;;;21.80;96.70;;;;;;5038054;28;20051;-77
2022/05/24 01:53:37;;;;;;;6.95;3.78;;;21.80;96.70;;;;;;5051215;28;20044;-77
2022/05/24 01:56:31;;;;;;;12.75;3.60;;;21.70;96.70;;;;;;5051429;28;20052;-77
2022/05/24 01:59:05;;;;;;;6.68;3.55;;;21.60;96.70;;;;;;5046955;28;20107;-77
2022/05/24 02:01:41;;;;;;;4.97;3.20;;;21.60;96.70;;;;;;5048169;28;20049;-77
2022/05/24 02:04:09;;;;;;;5.15;3.28;;;21.40;96.70;;;;;;5042285;28;20080;-78
2022/05/24 02:06:38;;;;;;;4.57;3.00;;;21.40;96.70;;;;;;5049017;28;20052;-77
2022/05/24 02:09:07;;;;;;;4.53;3.42;;;21.50;96.70;;;;;;5050242;28;20090;-78
2022/05/24 02:11:36;;;;;;;5.18;3.50;;;21.50;96.70;;;;;;5040007;28;20178;-78
2022/05/24 02:14:14;;;;;;;6.57;3.60;;;21.40;96.70;;;;;;5055043;28;20048;-78
2022/05/24 02:16:48;;;;;;;6.72;3.78;;;21.40;96.70;;;;;;5056210;28;20781;-78
2022/05/24 02:19:17;;;;;;;7.15;3.75;;;21.50;96.70;;;;;;5055414;28;20028;-78
2022/05/24 02:21:52;;;;;;;7.45;4.00;;;21.50;96.70;;;;;;5051835;28;20115;-78
2022/05/24 02:24:23;;;;;;;5.40;4.05;;;21.50;96.70;;;;;;5057101;28;20047;-75
2022/05/24 02:26:51;;;;;;;7.80;3.97;;;21.50;96.70;;;;;;5058760;28;20064;-75
2022/05/24 02:29:22;;;;;;;6.78;3.45;;;21.50;96.70;;;;;;5059583;28;20716;-75
2022/05/24 02:31:51;;;;;;;8.05;3.60;;;21.50;96.70;;;;;;5059131;28;20040;-75
2022/05/24 02:34:19;;;;;;;8.05;3.88;;;21.40;96.70;;;;;;5058299;28;20573;-75
2022/05/24 02:36:48;;;;;;;4.63;3.05;;;21.40;96.70;;;;;;5053766;28;20045;-75
2022/05/24 02:39:16;;;;;;;6.35;3.47;;;21.30;96.70;;;;;;5058747;28;20048;-75
2022/05/24 02:41:44;;;;;;;4.53;3.10;;;21.20;96.70;;;;;;5056735;28;20124;-75
2022/05/24 02:44:15;;;;;;;4.65;3.20;;;21.10;96.70;;;;;;5052913;28;20048;-75
2022/05/24 02:46:47;;;;;;;6.55;3.55;;;21.10;96.70;;;;;;5055068;28;20565;-75
2022/05/24 02:49:16;;;;;;;5.97;3.63;;;21.10;96.70;;;;;;5061535;28;20056;-76
2022/05/24 02:51:45;;;;;;;5.65;3.30;;;21.00;96.70;;;;;;5052044;28;20502;-76
2022/05/24 02:54:13;;;;;;;4.30;3.25;;;20.50;96.70;;;;;;5053997;28;20045;-75
2022/05/24 02:56:43;;;;;;;7.93;3.25;;;20.50;96.70;;;;;;5056879;28;20482;-76
2022/05/24 02:59:12;;;;;;;4.22;3.03;;;20.60;96.70;;;;;;5057278;28;20044;-75
2022/05/24 03:01:40;;;;;;;8.32;3.33;;;20.90;96.70;;;;;;5058065;28;20757;-77
2022/05/24 03:04:10;;;;;;;6.75;3.05;;;20.90;96.70;;;;;;5050616;28;20717;-75
2022/05/24 03:09:35;;;;;;;6.28;3.70;;;20.80;96.70;;;;;;5051522;28;20040;-74
2022/05/24 03:14:56;;;;;;;5.57;3.65;;;20.80;96.70;;;;;;5055113;28;20163;-78
2022/05/24 03:17:25;;;;;;;9.30;4.15;;;20.90;96.70;;;;;;5060300;28;20098;-78
2022/05/24 03:19:54;;;;;;;6.68;4.25;;;20.80;96.70;;;;;;5059179;28;20113;-77
2022/05/24 03:22:23;;;;;;;8.18;4.00;;;20.90;96.70;;;;;;5051412;28;20772;-78
2022/05/24 03:24:51;;;;;;;6.82;4.13;;;21.00;96.70;;;;;;5049001;28;20470;-77
2022/05/24 03:27:20;;;;;;;5.97;4.10;;;20.90;96.70;;;;;;5049534;28;20060;-76
2022/05/24 03:29:48;;;;;;;6.68;4.60;;;20.80;96.70;;;;;;5054550;28;20036;-76
2022/05/24 03:32:18;;;;;;;7.05;4.65;;;20.90;96.70;;;;;;5055688;28;21536;-76
2022/05/24 03:34:47;;;;;;;4.43;3.78;;;21.00;96.70;;;;;;5055251;28;21442;-76
2022/05/24 03:37:18;;;;;;;5.65;4.07;;;21.00;96.70;;;;;;5054801;28;20048;-76
2022/05/24 03:39:46;;;;;;;5.78;4.00;;;21.00;96.70;;;;;;5048685;28;20115;-76
2022/05/24 03:42:14;;;;;;;7.15;4.00;;;21.00;96.70;;;;;;5053643;28;20037;-76
2022/05/24 03:44:43;;;;;;;7.63;4.03;;;21.00;96.70;;;;;;5030890;28;20060;-76
2022/05/24 03:47:12;;;;;;;7.57;4.47;;;21.10;96.70;;;;;;5034883;28;20094;-75
2022/05/24 03:49:40;;;;;;;7.40;4.03;;;21.00;96.70;;;;;;5052009;28;20053;-76
2022/05/24 03:52:09;;;;;;;6.72;4.18;;;21.10;96.70;;;;;;5057743;28;20048;-76
2022/05/24 03:54:39;;;;;;;6.95;3.72;;;21.10;96.70;;;;;;5036540;28;20129;-78
2022/05/24 03:59:55;;;;;;;9.32;4.07;;;21.10;96.70;;;;;;5051021;28;20049;-76
2022/05/24 04:02:23;;;;;;;4.38;3.50;;;21.00;96.70;;;;;;5054150;28;20081;-76
2022/05/24 04:04:51;;;;;;;6.07;3.60;;;20.90;96.70;;;;;;5054765;28;20056;-75
2022/05/24 04:07:20;;;;;;;5.32;3.55;;;21.00;96.70;;;;;;5036757;28;20577;-76
2022/05/24 04:09:50;;;;;;;8.00;3.67;;;21.00;96.70;;;;;;5055208;28;20079;-76
2022/05/24 04:12:20;;;;;;;6.40;3.92;;;21.10;96.70;;;;;;5049619;28;20053;-76
2022/05/24 04:14:48;;;;;;;9.13;3.95;;;21.10;96.70;;;;;;5041550;28;20412;-76
2022/05/24 04:17:17;;;;;;;7.20;4.20;;;21.10;96.70;;;;;;5056419;28;20036;-76
2022/05/24 04:19:46;;;;;;;9.60;4.38;;;21.10;96.70;;;;;;5060131;28;20055;-76
2022/05/24 04:22:15;;;;;;;7.75;3.90;;;21.00;96.70;;;;;;5047519;28;20036;-75
2022/05/24 04:24:43;;;;;;;5.95;3.67;;;21.10;96.70;;;;;;5054068;28;20343;-76
2022/05/24 04:27:14;;;;;;;5.25;3.53;;;21.00;96.70;;;;;;5054078;28;20033;-76
2022/05/24 04:29:42;;;;;;;6.78;3.80;;;21.00;96.70;;;;;;5052997;28;20037;-76
2022/05/24 04:32:11;;;;;;;5.93;3.67;;;21.10;96.70;;;;;;5056623;28;20051;-75
2022/05/24 04:34:39;;;;;;;5.20;3.45;;;21.10;96.70;;;;;;5055155;28;20163;-76
2022/05/24 04:37:08;;;;;;;5.05;3.45;;;21.10;96.70;;;;;;5045921;28;20494;-76
2022/05/24 04:39:36;;;;;;;6.57;3.60;;;21.10;96.70;;;;;;5058170;28;20486;-76
2022/05/24 04:42:18;;;;;;;5.82;3.20;;;21.10;96.70;;;;;;5050287;28;20090;-77
2022/05/24 04:45:07;;;;;;;7.88;5.28;;;21.10;96.70;;;;;;5049184;28;20045;-76
2022/05/24 04:47:36;;;;;;;8.70;5.82;;;21.10;96.70;;;;;;5047025;28;20102;-76
2022/05/24 04:50:07;;;;;;;12.55;6.43;;;21.10;96.70;;;;;;5052440;28;20045;-76
2022/05/24 04:52:38;;;;;;;8.55;5.40;;;21.10;96.70;;;;;;5050628;28;20049;-76
2022/05/24 04:55:11;;;;;;;10.90;6.53;;;21.00;96.70;;;;;;5049608;28;20579;-76
2022/05/24 04:57:40;;;;;;;11.52;5.90;;;21.00;96.70;;;;;;5054308;28;20700;-76
2022/05/24 05:00:14;;;;;;;10.35;5.60;;;21.00;96.70;;;;;;5052472;28;20055;-76
2022/05/24 05:02:43;;;;;;;8.90;5.43;;;21.00;96.70;;;;;;5052103;28;20316;-76
2022/05/24 05:05:13;;;;;;;9.93;5.13;;;21.20;96.70;;;;;;5048771;28;20068;-76
2022/05/24 05:07:41;;;;;;;5.65;4.18;;;21.20;96.70;;;;;;5055341;28;20096;-76
2022/05/24 05:10:10;;;;;;;8.57;5.00;;;21.00;96.70;;;;;;5052970;28;20044;-76
2022/05/24 05:12:42;;;;;;;6.97;4.38;;;21.00;96.70;;;;;;5052375;28;20059;-76
2022/05/24 05:15:13;;;;;;;8.02;4.40;;;21.10;96.70;;;;;;5032900;28;20449;-76
2022/05/24 05:17:42;;;;;;;6.15;3.90;;;21.20;96.70;;;;;;5051445;28;20119;-76
2022/05/24 05:20:11;;;;;;;8.23;4.13;;;21.20;96.70;;;;;;5049945;28;20040;-76
2022/05/24 05:22:39;;;;;;;4.93;3.90;;;21.20;96.70;;;;;;5055683;28;20052;-77
2022/05/24 05:25:09;;;;;;;4.57;3.90;;;21.20;96.70;;;;;;5030397;28;20049;-77
2022/05/24 05:27:37;;;;;;;4.57;3.50;;;21.20;96.70;;;;;;5052929;28;20466;-77
2022/05/24 05:33:15;;;;;;;4.50;3.72;;;21.50;96.70;;;;;;5051312;28;20056;-76
2022/05/24 05:35:44;;;;;;;6.03;3.80;;;21.50;96.70;;;;;;4983075;28;20049;-76
2022/05/24 05:38:12;;;;;;;6.18;3.38;;;21.50;96.70;;;;;;4979506;28;20050;-76
2022/05/24 05:40:41;;;;;;;5.68;3.50;;;21.60;96.70;;;;;;4992317;28;20054;-76
2022/05/24 05:43:10;;;;;;;4.38;3.63;;;21.60;96.70;;;;;;4959918;28;20054;-76
2022/05/24 05:45:38;;;;;;;5.38;3.97;;;21.60;96.70;;;;;;4993430;28;20129;-76
2022/05/24 05:48:07;;;;;;;5.97;3.63;;;21.70;96.70;;;;;;4991339;28;20121;-77
2022/05/24 05:50:39;;;;;;;7.32;4.32;;;21.70;96.70;;;;;;4969969;28;20530;-76
2022/05/24 05:53:07;;;;;;;6.57;4.13;;;21.70;96.70;;;;;;5000565;28;20045;-76
2022/05/24 05:55:36;;;;;;;6.22;3.65;;;21.80;96.70;;;;;;4966772;28;20137;-76
2022/05/24 05:58:05;;;;;;;11.00;4.15;;;21.90;96.70;;;;;;4991918;28;20045;-77
2022/05/24 06:00:33;;;;;;;8.50;4.63;;;21.90;96.70;;;;;;4982121;28;20560;-77
2022/05/24 06:03:01;;;;;;;6.57;4.20;;;22.00;96.70;;;;;;4974989;28;20057;-77
2022/05/24 06:05:30;;;;;;;8.43;4.30;;;21.90;96.70;;;;;;4977255;28;20295;-77
2022/05/24 06:08:01;;;;;;;7.38;4.05;;;22.00;96.70;;;;;;4976339;28;20057;-77
2022/05/24 06:10:30;;;;;;;7.75;4.15;;;22.00;96.70;;;;;;4987565;28;20046;-77
2022/05/24 06:12:59;;;;;;;9.10;4.20;;;22.00;96.70;;;;;;4981191;28;20041;-78
2022/05/24 06:15:27;;;;;;;7.72;3.95;;;22.10;96.70;;;;;;4996888;28;20106;-77
2022/05/24 06:17:55;;;;;;;11.05;4.43;;;22.20;96.70;;;;;;4976271;28;20038;-77
2022/05/24 06:20:27;;;;;;;8.00;4.93;;;22.30;96.70;;;;;;4983874;28;20051;-77
2022/05/24 06:22:57;;;;;;;9.07;4.03;;;22.30;96.70;;;;;;4978394;28;20106;-77
2022/05/24 06:25:30;;;;;;;7.70;4.60;;;22.30;96.70;;;;;;4977369;28;20096;-77
2022/05/24 06:27:59;;;;;;;9.70;3.70;;;22.40;96.70;;;;;;4984708;28;20088;-78
2022/05/24 06:30:28;;;;;;;6.43;3.50;;;22.40;96.70;;;;;;4976837;28;20050;-77
2022/05/24 06:32:57;;;;;;;8.77;4.25;;;22.50;96.70;;;;;;4984655;28;20770;-77
2022/05/24 06:35:25;;;;;;;6.78;3.40;;;22.60;96.70;;;;;;5000417;28;20202;-77
2022/05/24 06:37:54;;;;;;;7.10;3.50;;;22.60;96.70;;;;;;4984058;28;20049;-76
2022/05/24 06:40:23;;;;;;;7.60;3.35;;;22.70;96.70;;;;;;4982468;28;20774;-77
2022/05/24 06:42:52;;;;;;;5.00;3.10;;;22.70;96.70;;;;;;4989680;28;20053;-77
2022/05/24 06:45:21;;;;;;;5.70;2.75;;;22.70;96.70;;;;;;4996508;28;20542;-78
2022/05/24 06:47:50;;;;;;;6.35;3.05;;;22.70;96.70;;;;;;4974752;28;20058;-77
2022/05/24 06:50:20;;;;;;;6.63;3.22;;;22.80;96.70;;;;;;4978826;28;20050;-77
2022/05/24 06:52:53;;;;;;;7.18;3.47;;;22.80;96.70;;;;;;4982372;28;20551;-78
2022/05/24 06:55:22;;;;;;;5.25;3.50;;;22.80;96.70;;;;;;4991342;28;20065;-76
2022/05/24 06:57:52;;;;;;;6.45;3.35;;;22.80;96.70;;;;;;4998152;28;20143;-76
2022/05/24 07:03:10;;;;;;;10.05;2.90;;;22.90;96.70;;;;;;5055766;28;20715;-74
2022/05/24 07:05:39;;;;;;;4.97;3.10;;;22.90;96.70;;;;;;5049072;28;20607;-74
2022/05/24 07:08:08;;;;;;;6.15;3.40;;;22.90;96.70;;;;;;5054144;28;20037;-74
2022/05/24 07:10:37;;;;;;;7.22;3.15;;;22.90;96.70;;;;;;5051528;28;20069;-76
2022/05/24 07:13:09;;;;;;;6.07;3.45;;;23.00;96.70;;;;;;5050889;28;20419;-74
2022/05/24 07:15:38;;;;;;;4.68;3.20;;;23.10;96.70;;;;;;5046995;28;20979;-77
2022/05/24 07:18:06;;;;;;;8.32;3.88;;;23.20;96.70;;;;;;5038312;28;20475;-77
2022/05/24 07:20:36;;;;;;;4.60;3.15;;;23.20;96.70;;;;;;5053884;28;20045;-77
2022/05/24 07:23:10;;;;;;;4.25;2.85;;;23.30;96.70;;;;;;5046563;28;20052;-77
2022/05/24 07:25:41;;;;;;;3.65;2.72;;;23.20;96.70;;;;;;5039679;28;20045;-74
2022/05/24 07:28:13;;;;;;;4.80;2.67;;;23.20;96.70;;;;;;5053176;28;20422;-75
2022/05/24 07:30:41;;;;;;;6.70;3.20;;;23.30;96.70;;;;;;5051170;28;20053;-75
2022/05/24 07:33:10;;;;;;;4.57;2.50;;;23.30;96.70;;;;;;5052359;28;20500;-74
2022/05/24 07:35:39;;;;;;;5.10;2.92;;;23.40;96.70;;;;;;5056670;28;20040;-74
2022/05/24 07:38:08;;;;;;;5.97;3.00;;;23.40;96.70;;;;;;5052881;28;20048;-73
2022/05/24 07:46:16;;;;;;;6.43;3.53;;;23.60;96.70;;;;;;5054614;28;20316;-75
2022/05/24 07:48:44;;;;;;;7.53;3.15;;;23.70;96.70;;;;;;5053164;28;20063;-74
2022/05/24 07:51:12;;;;;;;9.45;3.40;;;23.80;96.70;;;;;;5053779;28;20047;-75
2022/05/24 07:53:41;;;;;;;5.30;2.90;;;23.80;96.70;;;;;;5048950;28;21088;-74
2022/05/24 07:56:10;;;;;;;8.00;3.28;;;23.70;96.70;;;;;;5056504;28;20083;-75
2022/05/24 07:58:40;;;;;;;3.63;2.83;;;23.90;96.70;;;;;;5050017;28;20039;-75
2022/05/24 08:01:10;;;;;;;4.28;2.50;;;23.90;96.70;;;;;;5055658;28;20512;-77
2022/05/24 08:03:38;;;;;;;6.25;2.80;;;24.00;96.70;;;;;;5058585;28;20044;-75
2022/05/24 08:06:07;;;;;;;6.13;2.45;;;24.10;96.70;;;;;;5052467;28;20032;-76
2022/05/24 08:08:36;;;;;;;5.45;2.30;;;24.20;96.70;;;;;;5041202;28;20041;-76
2022/05/24 08:11:16;;;;;;;7.05;3.03;;;24.10;96.70;;;;;;5052105;28;20040;-77
2022/05/24 08:13:46;;;;;;;5.20;2.85;;;24.20;96.70;;;;;;5050429;28;20457;-76
2022/05/24 08:16:15;;;;;;;6.32;2.83;;;24.30;96.70;;;;;;5055156;28;20448;-75
2022/05/24 08:18:44;;;;;;;6.53;3.25;;;24.30;96.70;;;;;;5034631;28;20033;-75
2022/05/24 08:21:12;;;;;;;6.38;3.30;;;24.30;96.70;;;;;;5052314;28;20040;-75
2022/05/24 08:23:41;;;;;;;6.88;3.50;;;24.30;96.70;;;;;;5053880;28;20051;-74
2022/05/24 08:26:10;;;;;;;7.88;3.45;;;24.40;96.70;;;;;;5053925;28;20122;-73
2022/05/24 08:28:40;;;;;;;6.53;3.60;;;24.40;96.70;;;;;;5050659;28;20048;-74
2022/05/24 08:31:11;;;;;;;6.97;3.72;;;24.40;96.70;;;;;;5051756;28;20044;-75
2022/05/24 08:33:40;;;;;;;8.27;4.20;;;24.50;96.70;;;;;;5052857;28;20048;-74
2022/05/24 08:36:09;;;;;;;7.95;3.92;;;24.50;96.70;;;;;;5036124;28;20045;-75
2022/05/24 08:38:40;;;;;;;6.72;4.22;;;24.60;96.70;;;;;;5051523;28;20075;-74
2022/05/24 08:41:15;;;;;;;6.82;4.03;;;24.60;96.70;;;;;;5052559;28;20522;-75
2022/05/24 08:49:58;;;;;;;9.02;3.25;;;24.70;96.70;;;;;;5050856;28;20045;-76
2022/05/24 08:52:33;;;;;;;5.97;3.42;;;24.80;96.70;;;;;;5051238;28;20151;-75
2022/05/24 08:55:02;;;;;;;6.20;2.92;;;24.80;96.70;;;;;;5053807;28;20553;-75
2022/05/24 08:57:39;;;;;;;7.93;3.42;;;24.90;96.70;;;;;;5050155;28;20037;-77
2022/05/24 09:00:13;;;;;;;8.45;3.40;;;25.10;96.70;;;;;;5036315;28;20059;-76
2022/05/24 09:02:45;;;;;;;7.80;3.22;;;25.30;96.70;;;;;;5047619;28;20037;-77
2022/05/24 09:05:19;;;;;;;8.35;3.20;;;25.50;96.70;;;;;;5051755;28;20487;-80
2022/05/24 09:08:03;;;;;;;5.20;2.97;;;25.60;96.70;;;;;;5051223;28;20049;-78
2022/05/24 09:10:38;;;;;;;6.00;3.10;;;25.60;96.70;;;;;;5050847;28;20048;-78
2022/05/24 09:13:28;;;;;;;4.77;2.40;;;25.70;96.70;;;;;;5053927;28;20040;-79
2022/05/24 09:16:06;;;;;;;7.22;2.75;;;25.90;96.70;;;;;;5027145;28;20055;-78
2022/05/24 09:18:45;;;;;;;6.00;2.50;;;26.10;96.70;;;;;;5051662;28;20045;-78
2022/05/24 09:21:20;;;;;;;8.40;2.70;;;26.20;96.70;;;;;;5049788;28;20044;-77
2022/05/24 09:23:57;;;;;;;6.15;2.83;;;26.20;96.70;;;;;;5038503;28;20080;-78
2022/05/24 09:26:26;;;;;;;7.65;2.80;;;26.20;96.70;;;;;;5046702;28;20045;-77
2022/05/24 09:28:56;;;;;;;4.85;2.65;;;26.20;96.70;;;;;;5050950;28;20134;-77
2022/05/24 09:31:35;;;;;;;7.05;2.92;;;26.20;96.70;;;;;;5048494;28;20135;-77
2022/05/24 09:34:20;;;;;;;6.10;2.88;;;26.20;96.70;;;;;;5052579;28;20147;-77
2022/05/24 09:36:54;;;;;;;9.85;2.88;;;26.10;96.70;;;;;;5050850;28;20075;-77
2022/05/24 09:39:26;;;;;;;6.35;2.65;;;26.10;96.70;;;;;;5051187;28;20079;-78
2022/05/24 09:42:00;;;;;;;4.00;2.22;;;26.00;96.70;;;;;;5035716;28;20060;-78
2022/05/24 09:44:41;;;;;;;9.68;2.65;;;25.90;96.70;;;;;;5047700;28;20655;-77
2022/05/24 09:47:25;;;;;;;4.60;2.28;;;25.70;96.70;;;;;;5036239;28;20517;-77
2022/05/24 09:50:21;;;;;;;8.90;2.80;;;25.70;96.70;;;;;;5048827;28;20476;-77
2022/05/24 09:53:09;;;;;;;5.78;2.53;;;25.70;96.70;;;;;;5034506;28;20160;-77
2022/05/24 09:55:41;;;;;;;6.90;2.92;;;25.70;96.70;;;;;;5051509;28;20773;-77
2022/05/24 09:58:28;;;;;;;7.30;2.95;;;25.60;96.70;;;;;;5057496;28;20048;-77
2022/05/24 10:00:59;;;;;;;5.40;3.05;;;25.60;96.70;;;;;;5053718;28;20126;-77
2022/05/24 10:03:31;;;;;;;5.85;3.42;;;25.60;96.70;;;;;;5049681;28;20075;-77
2022/05/24 10:06:08;;;;;;;5.25;2.70;;;25.70;96.70;;;;;;5048457;28;20048;-77
2022/05/24 10:08:39;;;;;;;8.45;3.17;;;25.70;96.70;;;;;;5032260;28;20155;-78
2022/05/24 10:11:17;;;;;;;8.60;3.33;;;25.80;96.70;;;;;;5049430;28;20472;-77
2022/05/24 10:13:53;;;;;;;5.15;2.80;;;25.80;96.70;;;;;;5052842;28;20129;-77
2022/05/24 10:16:30;;;;;;;8.15;2.58;;;25.80;96.70;;;;;;5054335;28;20398;-77
2022/05/24 10:19:30;;;;;;;6.38;2.83;;;25.80;96.70;;;;;;5055561;28;20056;-77
2022/05/24 10:22:07;;;;;;;8.77;2.97;;;25.80;96.70;;;;;;5045589;28;20142;-77
2022/05/24 10:24:55;;;;;;;9.13;3.08;;;25.80;96.70;;;;;;5050515;28;20514;-77
2022/05/24 10:27:32;;;;;;;7.82;3.00;;;25.90;96.70;;;;;;5050352;28;20056;-79
2022/05/24 10:30:06;;;;;;;9.02;2.80;;;25.90;96.70;;;;;;5055261;28;20121;-77
2022/05/24 10:38:59;;;;;;;5.82;2.55;;;26.20;96.70;;;;;;5056406;28;20685;-77
2022/05/24 10:41:39;;;;;;;6.68;2.67;;;26.30;96.70;;;;;;5038344;28;20060;-77
2022/05/24 10:44:55;;;;;;;9.77;3.22;;;26.30;96.70;;;;;;5014151;28;20057;-77
2022/05/24 10:47:30;;;;;;;8.70;2.53;;;26.20;96.70;;;;;;5004139;28;20057;-77
2022/05/24 10:50:05;;;;;;;7.30;2.70;;;26.10;96.70;;;;;;4999604;28;20123;-77
2022/05/24 10:52:37;;;;;;;7.63;2.63;;;26.00;96.70;;;;;;4996795;28;20046;-77
2022/05/24 10:55:15;;;;;;;10.70;3.08;;;26.00;96.70;;;;;;4998899;28;20215;-77
2022/05/24 10:57:48;;;;;;;10.10;3.17;;;25.90;96.70;;;;;;4977997;28;20057;-78
2022/05/24 11:00:19;;;;;;;6.80;3.00;;;25.80;96.70;;;;;;4997972;28;20328;-77
2022/05/24 11:02:52;;;;;;;6.22;2.65;;;25.80;96.70;;;;;;4979413;28;20076;-77
2022/05/24 11:05:25;;;;;;;5.13;2.95;;;25.90;96.70;;;;;;5011807;28;20814;-76
2022/05/24 11:08:01;;;;;;;7.00;2.63;;;25.90;96.70;;;;;;4998165;28;20045;-76
2022/05/24 11:10:34;;;;;;;5.47;2.67;;;25.90;96.70;;;;;;4978505;28;20141;-77
2022/05/24 11:13:12;;;;;;;7.38;2.40;;;25.90;96.70;;;;;;5016298;28;20050;-77
2022/05/24 11:15:44;;;;;;;6.45;2.85;;;26.10;96.70;;;;;;5032263;28;20091;-77
2022/05/24 11:18:16;;;;;;;4.57;2.53;;;26.20;96.70;;;;;;5056647;28;20053;-78
2022/05/24 11:20:49;;;;;;;5.95;2.70;;;26.20;96.70;;;;;;5050675;28;20533;-77
2022/05/24 11:23:24;;;;;;;8.05;3.20;;;26.20;96.70;;;;;;5054028;28;20535;-77
2022/05/24 11:26:00;;;;;;;5.60;2.70;;;26.20;96.70;;;;;;5055276;28;20123;-77
2022/05/24 11:28:35;;;;;;;6.32;3.17;;;26.20;96.70;;;;;;5051213;28;20106;-76
2022/05/24 11:31:23;;;;;;;6.22;2.65;;;26.30;96.70;;;;;;5051554;28;20045;-77
2022/05/24 11:33:53;;;;;;;8.00;3.15;;;26.50;96.70;;;;;;5050220;28;20055;-77
2022/05/24 11:36:34;;;;;;;10.75;3.22;;;26.80;96.70;;;;;;5051714;28;20595;-77
2022/05/24 11:39:18;;;;;;;7.45;2.85;;;27.10;96.70;;;;;;5036941;28;20059;-77
2022/05/24 11:41:48;;;;;;;9.05;3.47;;;27.40;96.70;;;;;;5054077;28;20053;-77
2022/05/24 11:44:31;;;;;;;9.27;3.20;;;27.50;96.70;;;;;;5029252;28;20045;-77
2022/05/24 11:46:59;;;;;;;9.05;3.13;;;27.30;96.70;;;;;;5052186;28;20037;-77
2022/05/24 11:49:58;;;;;;;9.75;3.33;;;27.40;96.70;;;;;;5053180;28;20570;-76
2022/05/24 11:52:42;;;;;;;6.22;2.75;;;27.50;96.70;;;;;;4989288;28;20050;-77
2022/05/24 11:55:35;;;;;;;5.43;3.22;;;27.80;96.70;;;;;;4995022;28;20060;-77
2022/05/24 11:58:23;;;;;;;8.35;3.15;;;27.70;96.70;;;;;;4981678;28;20041;-77
2022/05/24 12:00:56;;;;;;;9.13;3.72;;;27.50;96.70;;;;;;4977140;28;20420;-77
2022/05/24 12:09:16;;;;;;;9.18;3.53;;;27.90;96.70;;;;;;4972440;28;20053;-77
2022/05/24 12:11:45;;;;;;;7.05;3.10;;;28.30;96.70;;;;;;5000634;28;20474;-77
2022/05/24 12:14:19;;;;;;;8.60;3.10;;;28.40;96.70;;;;;;4973558;28;20563;-77
2022/05/24 12:17:13;;;;;;;8.40;3.40;;;28.40;96.70;;;;;;4988313;28;20283;-77
2022/05/24 12:19:52;;;;;;;11.02;3.25;;;28.30;96.70;;;;;;4979937;28;20054;-77
2022/05/24 12:22:22;;;;;;;7.72;3.10;;;28.20;96.70;;;;;;4994051;28;20044;-77
2022/05/24 12:24:53;;;;;;;10.98;3.60;;;28.30;96.70;;;;;;4991914;28;20074;-76
2022/05/24 12:27:47;;;;;;;5.88;2.95;;;28.60;96.70;;;;;;5039478;28;20057;-77
2022/05/24 12:30:23;;;;;;;8.35;3.20;;;28.70;96.70;;;;;;5053204;28;20423;-77
2022/05/24 12:32:53;;;;;;;8.35;3.35;;;28.50;96.70;;;;;;5050227;28;20037;-77
2022/05/24 12:35:54;;;;;;;6.57;3.22;;;28.30;96.70;;;;;;5051490;28;20044;-77
2022/05/24 12:38:26;;;;;;;8.75;3.55;;;28.40;96.70;;;;;;5047328;28;20489;-76
2022/05/24 12:41:17;;;;;;;9.75;3.30;;;28.70;96.70;;;;;;5054371;28;20569;-77
2022/05/24 12:43:50;;;;;;;8.23;2.90;;;28.70;96.70;;;;;;5056396;28;20044;-77
2022/05/24 12:46:20;;;;;;;5.35;3.15;;;28.90;96.70;;;;;;5056996;28;20041;-77
2022/05/24 12:48:50;;;;;;;8.82;3.33;;;28.80;96.70;;;;;;5051447;28;20045;-76
2022/05/24 12:51:20;;;;;;;9.02;3.53;;;28.60;96.70;;;;;;5042541;28;20048;-77
2022/05/24 12:53:50;;;;;;;7.32;3.00;;;28.80;96.70;;;;;;5054296;28;20219;-76
2022/05/24 12:56:23;;;;;;;7.90;3.42;;;28.90;96.70;;;;;;5049948;28;20064;-77
2022/05/24 12:58:52;;;;;;;7.03;3.20;;;29.20;96.70;;;;;;5053203;28;20736;-76
2022/05/24 13:01:24;;;;;;;7.55;3.58;;;29.30;96.70;;;;;;5048441;28;20063;-76
2022/05/24 13:04:07;;;;;;;6.75;2.95;;;29.30;96.70;;;;;;5040325;28;20044;-76
2022/05/24 13:06:48;;;;;;;5.85;3.22;;;29.10;96.70;;;;;;5051267;28;20049;-77
2022/05/24 13:09:27;;;;;;;7.10;3.50;;;28.70;96.70;;;;;;5051761;28;20102;-77
2022/05/24 13:11:59;;;;;;;10.13;4.00;;;28.50;96.70;;;;;;5051930;28;20036;-76
2022/05/24 13:14:53;;;;;;;8.63;3.65;;;28.50;96.70;;;;;;5053562;28;20056;-76
2022/05/24 13:17:24;;;;;;;7.88;3.55;;;29.10;96.70;;;;;;5055487;28;20124;-76
2022/05/24 13:19:56;;;;;;;6.13;3.38;;;29.10;96.70;;;;;;5047600;28;20135;-77
2022/05/24 13:22:39;;;;;;;9.32;3.45;;;28.90;96.70;;;;;;5055901;28;20131;-77
2022/05/24 13:25:16;;;;;;;6.28;3.47;;;28.70;96.70;;;;;;5053219;28;20303;-76
2022/05/24 13:27:57;;;;;;;6.90;3.85;;;28.70;96.70;;;;;;5037702;28;20497;-77
2022/05/24 13:33:34;;;;;;;10.20;4.03;;;29.70;96.70;;;;;;5049870;28;20554;-77
2022/05/24 13:36:18;;;;;;;8.52;3.85;;;29.30;96.70;;;;;;5048952;28;20054;-77
2022/05/24 13:38:50;;;;;;;8.80;4.20;;;28.90;96.70;;;;;;5042233;28;20044;-77
2022/05/24 13:41:29;;;;;;;9.10;4.40;;;28.80;96.70;;;;;;5049622;28;20066;-77
2022/05/24 13:44:28;;;;;;;10.85;4.18;;;28.60;96.70;;;;;;5050670;28;20053;-77
2022/05/24 13:47:00;;;;;;;8.55;3.95;;;28.60;96.70;;;;;;5058493;28;20075;-77
2022/05/24 13:49:37;;;;;;;9.90;4.60;;;28.90;96.70;;;;;;5053275;28;20056;-77
2022/05/24 13:52:20;;;;;;;7.68;3.53;;;29.10;96.70;;;;;;5048660;28;20045;-77
2022/05/24 13:54:50;;;;;;;6.32;3.33;;;29.00;96.70;;;;;;5053522;28;20048;-77
2022/05/24 13:57:21;;;;;;;11.45;3.63;;;28.70;96.70;;;;;;5054889;28;20056;-76
2022/05/24 13:59:58;;;;;;;14.75;3.80;;;28.60;96.70;;;;;;5052921;28;20044;-76
2022/05/24 14:02:27;;;;;;;9.60;3.55;;;28.80;96.70;;;;;;5056206;28;20508;-76
2022/05/24 14:04:57;;;;;;;11.02;4.00;;;29.40;96.70;;;;;;5052651;28;20050;-76